createdAt,value
2019-05-13T00:02:06.776Z,76.17
2019-05-13T00:04:39.359Z,76.30
2019-05-13T00:07:13.418Z,76.38
2019-05-13T00:09:45.937Z,76.67
2019-05-13T00:12:18.613Z,76.90
2019-05-13T00:14:50.822Z,76.38
2019-05-13T00:17:23.780Z,76.66
2019-05-13T00:19:57.886Z,76.50
2019-05-13T00:22:30.564Z,75.66
2019-05-13T00:25:04.066Z,75.68
2019-05-13T00:27:36.887Z,75.56
2019-05-13T00:30:09.917Z,75.33
2019-05-13T00:32:44.605Z,75.23
2019-05-13T00:35:16.815Z,75.01
2019-05-13T00:37:49.498Z,75.06
2019-05-13T00:40:24.040Z,75.22
2019-05-13T00:42:56.073Z,75.31
2019-05-13T00:45:28.774Z,75.55
2019-05-13T00:48:01.454Z,75.69
2019-05-13T00:50:34.120Z,75.90
2019-05-13T00:53:06.638Z,75.91
2019-05-13T00:55:39.281Z,75.79
2019-05-13T00:58:13.942Z,75.61
2019-05-13T01:00:46.777Z,75.95
2019-05-13T01:03:19.877Z,76.28
2019-05-13T01:05:53.534Z,76.11
2019-05-13T01:08:27.169Z,76.21
2019-05-13T01:10:59.752Z,76.28
2019-05-13T01:13:34.224Z,76.25
2019-05-13T01:16:08.182Z,76.48
2019-05-13T01:18:43.172Z,76.70
2019-05-13T01:21:15.999Z,76.72
2019-05-13T01:23:49.090Z,77.20
2019-05-13T01:26:23.285Z,77.40
2019-05-13T01:28:55.981Z,77.58
2019-05-13T01:31:28.668Z,77.69
2019-05-13T01:34:01.343Z,77.49
2019-05-13T01:36:34.264Z,77.90
2019-05-13T01:39:08.755Z,78.30
2019-05-13T01:41:43.647Z,78.23
2019-05-13T01:44:15.467Z,78.49
2019-05-13T01:46:47.674Z,78.28
2019-05-13T01:49:20.404Z,78.26
2019-05-13T01:51:54.167Z,78.52
2019-05-13T01:54:27.076Z,78.70
2019-05-13T01:56:59.647Z,78.54
2019-05-13T01:59:33.993Z,78.74
2019-05-13T02:02:07.263Z,78.59
2019-05-13T02:04:39.534Z,78.57
2019-05-13T02:07:13.809Z,78.67
2019-05-13T02:09:46.107Z,78.68
2019-05-13T02:12:18.695Z,79.00
2019-05-13T02:14:53.411Z,78.76
2019-05-13T02:17:25.594Z,79.14
2019-05-13T02:19:59.289Z,79.30
2019-05-13T02:22:33.661Z,79.84
2019-05-13T02:25:07.327Z,79.63
2019-05-13T02:27:40.192Z,80.04
2019-05-13T02:30:16.299Z,79.86
2019-05-13T02:32:47.187Z,80.07
2019-05-13T02:35:22.945Z,79.92
2019-05-13T02:38:12.378Z,80.05
2019-05-13T02:40:32.470Z,80.05
2019-05-13T02:43:03.387Z,80.12
2019-05-13T02:45:36.740Z,80.38
2019-05-13T02:48:12.424Z,80.13
2019-05-13T02:50:44.249Z,80.34
2019-05-13T02:53:17.022Z,80.63
2019-05-13T02:55:52.446Z,80.86
2019-05-13T02:58:25.133Z,81.02
2019-05-13T03:00:58.345Z,81.65
2019-05-13T03:03:32.685Z,82.00
2019-05-13T03:06:05.220Z,82.51
2019-05-13T03:08:46.185Z,83.00
2019-05-13T03:11:12.764Z,83.50
2019-05-13T03:13:47.279Z,83.87
2019-05-13T03:16:24.925Z,84.06
2019-05-13T03:18:57.706Z,84.38
2019-05-13T03:21:32.667Z,84.60
2019-05-13T03:24:05.324Z,84.54
2019-05-13T03:26:38.140Z,84.79
2019-05-13T03:29:13.330Z,85.14
2019-05-13T03:31:47.236Z,85.49
2019-05-13T03:34:25.460Z,85.64
2019-05-13T03:36:57.350Z,85.78
2019-05-13T03:39:33.209Z,85.31
2019-05-13T03:42:12.346Z,85.00
2019-05-13T03:44:46.180Z,84.65
2019-05-13T03:47:23.125Z,84.32
2019-05-13T03:50:03.029Z,83.97
2019-05-13T03:52:34.776Z,83.43
2019-05-13T03:55:09.349Z,83.52
2019-05-13T03:57:42.568Z,83.68
2019-05-13T04:00:16.370Z,83.71
2019-05-13T04:02:51.882Z,83.37
2019-05-13T04:05:23.749Z,83.09
2019-05-13T04:07:56.732Z,82.79
2019-05-13T04:10:33.354Z,82.72
2019-05-13T04:13:06.969Z,82.31
2019-05-13T04:15:42.514Z,82.26
2019-05-13T04:18:14.195Z,82.21
2019-05-13T04:20:48.668Z,81.88
2019-05-13T04:23:25.765Z,81.44
2019-05-13T04:26:02.617Z,81.32
2019-05-13T04:28:35.098Z,80.72
2019-05-13T04:31:07.750Z,80.13
2019-05-13T04:33:47.300Z,79.42
2019-05-13T04:36:23.542Z,79.02
2019-05-13T04:38:55.656Z,78.16
2019-05-13T04:41:28.281Z,77.67
2019-05-13T04:44:02.649Z,77.58
2019-05-13T04:46:35.788Z,77.10
2019-05-13T04:49:08.482Z,77.25
2019-05-13T04:51:42.090Z,76.73
2019-05-13T04:54:15.057Z,76.77
2019-05-13T04:56:47.948Z,76.45
2019-05-13T04:59:22.675Z,76.26
2019-05-13T05:02:51.270Z,76.15
2019-05-13T05:05:34.274Z,75.48
2019-05-13T05:08:42.077Z,74.52
2019-05-13T05:11:48.167Z,74.03
2019-05-13T05:14:44.284Z,73.12
2019-05-13T05:17:39.593Z,72.49
2019-05-13T05:20:32.161Z,70.04
2019-05-13T05:23:32.030Z,70.45
2019-05-13T05:26:25.511Z,70.12
2019-05-13T05:29:17.579Z,69.45
2019-05-13T05:32:12.232Z,69.59
2019-05-13T05:35:11.785Z,69.57
2019-05-13T05:38:26.273Z,69.62
2019-05-13T05:41:01.657Z,67.63
2019-05-13T05:43:37.405Z,67.22
2019-05-13T05:46:12.140Z,66.51
2019-05-13T05:48:45.929Z,65.15
2019-05-13T05:51:22.141Z,64.93
2019-05-13T05:53:57.535Z,65.08
2019-05-13T05:56:33.080Z,64.55
2019-05-13T05:59:06.183Z,64.40
2019-05-13T06:01:41.577Z,64.17
2019-05-13T06:04:14.496Z,63.70
2019-05-13T06:06:52.046Z,62.79
2019-05-13T06:09:23.546Z,61.39
2019-05-13T06:11:56.642Z,59.99
2019-05-13T06:14:29.368Z,60.71
2019-05-13T06:17:02.924Z,60.00
2019-05-13T06:19:35.909Z,60.35
2019-05-13T06:22:08.604Z,59.92
2019-05-13T06:24:42.039Z,59.61
2019-05-13T06:27:15.172Z,59.72
2019-05-13T06:29:49.292Z,60.53
2019-05-13T06:32:26.077Z,60.65
2019-05-13T06:34:57.303Z,58.67
2019-05-13T06:37:32.029Z,59.72
2019-05-13T06:40:04.201Z,60.16
2019-05-13T06:42:36.835Z,61.44
2019-05-13T06:45:12.399Z,60.75
2019-05-13T06:47:44.687Z,61.54
2019-05-13T06:50:17.378Z,61.89
2019-05-13T06:52:51.411Z,61.10
2019-05-13T06:55:24.474Z,61.05
2019-05-13T06:57:57.371Z,61.04
2019-05-13T07:00:34.225Z,61.14
2019-05-13T07:03:04.294Z,60.92
2019-05-13T07:05:45.270Z,60.47
2019-05-13T07:08:22.194Z,60.55
2019-05-13T07:10:58.723Z,60.63
2019-05-13T07:13:32.253Z,60.80
2019-05-13T07:16:07.978Z,61.23
2019-05-13T07:18:41.567Z,60.81
2019-05-13T07:21:21.691Z,61.97
2019-05-13T07:24:05.679Z,61.15
2019-05-13T07:26:42.883Z,59.50
2019-05-13T07:29:20.462Z,57.65
2019-05-13T07:31:58.690Z,58.30
2019-05-13T07:34:35.620Z,57.57
2019-05-13T07:37:11.334Z,56.89
2019-05-13T07:39:44.875Z,57.27
2019-05-13T07:42:19.227Z,57.03
2019-05-13T07:47:53.745Z,56.14
2019-05-13T07:50:29.286Z,56.43
2019-05-13T07:53:05.057Z,55.93
2019-05-13T07:55:44.295Z,57.40
2019-05-13T07:58:28.724Z,56.54
2019-05-13T08:01:22.113Z,57.22
2019-05-13T08:03:56.495Z,56.83
2019-05-13T08:06:41.439Z,56.87
2019-05-13T08:09:38.757Z,56.74
2019-05-13T08:12:33.098Z,56.64
2019-05-13T08:15:13.002Z,56.64
2019-05-13T08:20:57.242Z,55.67
2019-05-13T08:23:33.513Z,54.30
2019-05-13T08:26:21.658Z,54.87
2019-05-13T08:31:59.629Z,53.28
2019-05-13T08:34:45.696Z,54.74
2019-05-13T08:37:32.171Z,54.20
2019-05-13T08:40:13.751Z,53.40
2019-05-13T08:42:54.641Z,52.64
2019-05-13T08:45:31.491Z,52.49
2019-05-13T08:48:04.789Z,52.31
2019-05-13T08:51:34.526Z,51.37
2019-05-13T08:56:32.468Z,49.89
2019-05-13T08:59:26.002Z,50.43
2019-05-13T09:02:03.617Z,50.23
2019-05-13T09:04:46.254Z,50.24
2019-05-13T09:07:26.914Z,51.21
2019-05-13T09:12:37.101Z,50.67
2019-05-13T09:18:15.939Z,47.53
2019-05-13T09:21:02.501Z,50.21
2019-05-13T09:23:41.345Z,49.83
2019-05-13T09:26:14.799Z,48.11
2019-05-13T09:29:01.358Z,46.72
2019-05-13T09:31:54.920Z,47.29
2019-05-13T09:34:35.734Z,47.69
2019-05-13T09:37:22.589Z,43.87
2019-05-13T09:40:19.126Z,40.59
2019-05-13T09:43:12.629Z,41.72
2019-05-13T09:46:11.815Z,40.95
2019-05-13T09:52:12.019Z,41.34
2019-05-13T09:54:56.204Z,39.33
2019-05-13T09:58:02.974Z,42.44
2019-05-13T10:00:52.321Z,37.98
2019-05-13T10:09:24.621Z,37.74
2019-05-13T10:19:04.865Z,37.66
2019-05-13T10:25:18.609Z,37.30
2019-05-13T10:31:11.941Z,39.14
2019-05-13T10:34:10.328Z,41.89
2019-05-13T10:36:51.346Z,40.21
2019-05-13T10:39:28.783Z,41.54
2019-05-13T10:42:08.698Z,41.85
2019-05-13T10:45:06.704Z,41.85
2019-05-13T10:48:03.195Z,39.05
2019-05-13T10:51:02.402Z,39.35
2019-05-13T10:54:14.458Z,35.04
2019-05-13T10:57:03.530Z,36.37
2019-05-13T10:59:44.331Z,37.85
2019-05-13T11:11:12.941Z,33.12
2019-05-13T11:14:10.135Z,31.71
2019-05-13T11:16:38.730Z,31.42
2019-05-13T11:19:14.603Z,33.35
2019-05-13T11:21:50.620Z,34.21
2019-05-13T11:24:22.860Z,35.19
2019-05-13T11:26:57.134Z,35.92
2019-05-13T11:29:32.330Z,36.68
2019-05-13T11:32:04.294Z,32.88
2019-05-13T11:34:41.977Z,32.74
2019-05-13T11:37:22.315Z,30.80
2019-05-13T11:40:02.946Z,33.56
2019-05-13T11:42:55.265Z,33.72
2019-05-13T11:45:41.541Z,34.31
2019-05-13T11:51:24.080Z,35.14
2019-05-13T11:53:55.308Z,35.45
2019-05-13T11:56:33.578Z,36.37
2019-05-13T11:59:07.905Z,31.33
2019-05-13T12:08:14.213Z,31.25
2019-05-13T12:14:43.054Z,32.04
2019-05-13T12:24:51.575Z,31.36
2019-05-13T12:31:38.580Z,30.46
2019-05-13T12:36:56.729Z,30.49
2019-05-13T12:39:32.055Z,28.73
2019-05-13T12:42:03.991Z,27.34
2019-05-13T12:44:59.814Z,26.57
2019-05-13T12:47:14.673Z,27.13
2019-05-13T12:49:47.580Z,28.47
2019-05-13T12:52:22.932Z,29.33
2019-05-13T12:54:54.104Z,29.17
2019-05-13T12:57:26.376Z,29.44
2019-05-13T13:00:02.089Z,32.07
2019-05-13T13:39:25.418Z,37.51
2019-05-13T13:44:26.223Z,39.00
2019-05-13T13:46:59.298Z,38.98
2019-05-13T13:49:34.872Z,40.17
2019-05-13T13:52:06.483Z,40.92
2019-05-13T13:54:45.738Z,39.90
2019-05-13T13:57:18.003Z,40.53
2019-05-13T14:00:16.304Z,40.16
2019-05-13T14:02:25.651Z,40.35
2019-05-13T14:05:04.881Z,39.66
2019-05-13T14:07:38.634Z,39.13
2019-05-13T14:10:11.607Z,38.53
2019-05-13T14:12:44.122Z,37.40
2019-05-13T14:15:16.580Z,37.16
2019-05-13T14:17:51.655Z,37.51
2019-05-13T14:20:26.089Z,37.18
2019-05-13T14:23:02.831Z,36.77
2019-05-13T14:28:45.146Z,36.39
2019-05-13T14:34:35.655Z,36.60
2019-05-13T14:37:17.711Z,37.36
2019-05-13T14:40:12.168Z,37.90
2019-05-13T14:46:15.858Z,33.65
2019-05-13T14:48:56.130Z,32.70
2019-05-13T14:51:29.061Z,34.40
2019-05-13T14:54:28.408Z,35.55
2019-05-13T14:57:07.295Z,34.71
2019-05-13T14:59:41.436Z,31.51
2019-05-13T15:02:14.553Z,29.51
2019-05-13T15:04:47.237Z,29.12
2019-05-13T15:07:21.653Z,29.94
2019-05-13T15:09:56.887Z,32.57
2019-05-13T15:12:32.331Z,35.80
2019-05-13T15:15:18.606Z,36.22
2019-05-13T15:36:22.585Z,40.49
2019-05-13T15:39:12.649Z,41.52
2019-05-13T15:41:47.502Z,42.98
2019-05-13T15:44:21.975Z,43.92
2019-05-13T15:46:59.424Z,43.80
2019-05-13T15:49:32.353Z,44.86
2019-05-13T15:52:06.796Z,43.71
2019-05-13T15:54:41.456Z,43.65
2019-05-13T15:57:18.049Z,43.16
2019-05-13T15:59:53.426Z,42.10
2019-05-13T16:02:27.841Z,42.87
2019-05-13T16:05:04.618Z,41.62
2019-05-13T16:07:35.876Z,39.66
2019-05-13T16:10:11.351Z,32.10
2019-05-13T16:13:02.298Z,28.92
2019-05-13T16:15:55.072Z,27.55
2019-05-13T16:25:20.729Z,35.79
2019-05-13T16:27:53.925Z,37.05
2019-05-13T16:30:26.915Z,37.42
2019-05-13T16:33:02.258Z,37.64
2019-05-13T16:35:34.420Z,37.93
2019-05-13T16:38:07.195Z,39.38
2019-05-13T16:40:42.173Z,39.36
2019-05-13T16:43:15.177Z,39.97
2019-05-13T16:45:47.446Z,39.55
2019-05-13T16:48:21.700Z,38.48
2019-05-13T16:51:08.426Z,33.08
2019-05-13T16:57:10.507Z,28.73
2019-05-13T16:59:42.885Z,31.02
2019-05-13T17:11:36.203Z,34.38
2019-05-13T17:14:13.901Z,34.83
2019-05-13T17:16:46.683Z,35.08
2019-05-13T17:19:19.253Z,35.01
2019-05-13T17:21:55.205Z,34.62
2019-05-13T17:24:28.655Z,35.18
2019-05-13T17:27:02.406Z,32.52
2019-05-13T17:29:36.355Z,33.42
2019-05-13T17:32:11.423Z,34.37
2019-05-13T17:34:45.873Z,35.14
2019-05-13T17:37:17.840Z,36.41
2019-05-13T17:39:50.719Z,36.81
2019-05-13T17:42:24.008Z,36.52
2019-05-13T17:44:56.684Z,36.68
2019-05-13T17:47:31.121Z,37.69
2019-05-13T17:50:06.405Z,38.31
2019-05-13T17:52:39.026Z,38.27
2019-05-13T17:55:12.495Z,38.99
2019-05-13T17:57:45.198Z,38.30
2019-05-13T18:00:17.991Z,36.91
2019-05-13T18:02:51.445Z,37.13
2019-05-13T18:05:24.369Z,36.88
2019-05-13T18:07:57.052Z,36.88
2019-05-13T18:10:31.822Z,37.93
2019-05-13T18:13:04.875Z,37.26
2019-05-13T18:15:37.533Z,37.51
2019-05-13T18:18:11.863Z,37.84
2019-05-13T18:20:44.235Z,37.75
2019-05-13T18:23:17.120Z,38.35
2019-05-13T18:25:51.477Z,38.23
2019-05-13T18:28:30.932Z,38.08
2019-05-13T18:30:58.149Z,38.90
2019-05-13T18:33:31.968Z,39.13
2019-05-13T18:36:06.350Z,38.85
2019-05-13T18:38:38.635Z,39.39
2019-05-13T18:41:11.998Z,39.91
2019-05-13T18:43:45.087Z,40.91
2019-05-13T18:46:17.883Z,41.26
2019-05-13T18:48:58.680Z,42.29
2019-05-13T18:51:24.884Z,43.23
2019-05-13T18:54:01.140Z,43.13
2019-05-13T18:56:34.234Z,43.32
2019-05-13T18:59:06.900Z,45.33
2019-05-13T19:01:39.843Z,46.19
2019-05-13T19:04:12.679Z,46.41
2019-05-13T19:06:46.374Z,47.62
2019-05-13T19:09:21.759Z,46.02
2019-05-13T19:11:54.406Z,47.94
2019-05-13T19:14:26.679Z,48.16
2019-05-13T19:16:59.335Z,48.28
2019-05-13T19:19:32.030Z,48.40
2019-05-13T19:22:05.106Z,49.83
2019-05-13T19:24:37.791Z,50.35
2019-05-13T19:27:12.023Z,51.13
2019-05-13T19:29:46.334Z,50.78
2019-05-13T19:32:21.718Z,50.74
2019-05-13T19:34:53.736Z,49.67
2019-05-13T19:37:26.190Z,50.22
2019-05-13T19:40:03.041Z,50.00
2019-05-13T19:42:37.427Z,49.90
2019-05-13T19:45:11.180Z,50.10
2019-05-13T19:47:43.785Z,49.51
2019-05-13T19:50:16.092Z,49.71
2019-05-13T19:52:48.734Z,50.50
2019-05-13T19:55:21.526Z,50.82
2019-05-13T19:57:54.435Z,51.07
2019-05-13T20:00:28.652Z,50.89
2019-05-13T20:03:01.394Z,51.82
2019-05-13T20:05:34.075Z,51.93
2019-05-13T20:08:07.286Z,52.10
2019-05-13T20:10:42.158Z,52.10
2019-05-13T20:13:13.955Z,51.11
2019-05-13T20:15:46.726Z,51.05
2019-05-13T20:18:18.950Z,51.26
2019-05-13T20:20:52.202Z,51.67
2019-05-13T20:23:25.789Z,51.77
2019-05-13T20:25:59.245Z,52.64
2019-05-13T20:28:31.885Z,53.33
2019-05-13T20:31:04.555Z,52.43
2019-05-13T20:33:39.959Z,52.14
2019-05-13T20:36:12.577Z,52.35
2019-05-13T20:38:45.755Z,52.74
2019-05-13T20:41:18.845Z,52.45
2019-05-13T20:43:52.156Z,52.46
2019-05-13T20:46:25.124Z,52.63
2019-05-13T20:48:57.709Z,52.27
2019-05-13T20:51:31.344Z,50.77
2019-05-13T20:54:04.190Z,50.70
2019-05-13T20:56:37.069Z,50.23
2019-05-13T20:59:12.576Z,51.03
2019-05-13T21:01:45.189Z,51.04
2019-05-13T21:04:17.865Z,50.81
2019-05-13T21:06:51.628Z,51.67
2019-05-13T21:09:24.458Z,50.67
2019-05-13T21:11:56.715Z,50.99
2019-05-13T21:14:31.785Z,51.21
2019-05-13T21:17:03.813Z,51.33
2019-05-13T21:19:39.707Z,52.08
2019-05-13T21:22:11.850Z,52.27
2019-05-13T21:24:44.522Z,51.19
2019-05-13T21:27:17.200Z,52.19
2019-05-13T21:29:51.939Z,51.64
2019-05-13T21:32:25.122Z,52.87
2019-05-13T21:34:57.711Z,52.59
2019-05-13T21:37:30.489Z,53.35
2019-05-13T21:40:03.273Z,53.54
2019-05-13T21:42:37.283Z,53.75
2019-05-13T21:45:11.251Z,53.85
2019-05-13T21:47:44.073Z,53.46
2019-05-13T21:50:29.470Z,53.87
2019-05-13T21:52:51.542Z,53.56
2019-05-13T21:55:24.147Z,54.33
2019-05-13T21:57:58.058Z,54.84
2019-05-13T22:00:32.474Z,54.71
2019-05-13T22:03:05.679Z,55.20
2019-05-13T22:05:38.359Z,54.47
2019-05-13T22:08:12.373Z,54.20
2019-05-13T22:10:45.081Z,54.66
2019-05-13T22:13:17.723Z,54.13
2019-05-13T22:15:52.343Z,54.06
2019-05-13T22:18:24.924Z,54.37
2019-05-13T22:20:57.804Z,55.03
2019-05-13T22:23:32.076Z,56.12
2019-05-13T22:26:04.489Z,55.47
2019-05-13T22:28:37.370Z,54.34
2019-05-13T22:31:11.688Z,55.66
2019-05-13T22:33:45.285Z,55.25
2019-05-13T22:36:18.477Z,55.25
2019-05-13T22:38:51.785Z,55.01
2019-05-13T22:41:24.591Z,55.23
2019-05-13T22:43:58.893Z,55.04
2019-05-13T22:46:32.208Z,55.11
2019-05-13T22:49:05.266Z,55.31
2019-05-13T22:51:38.251Z,55.38
2019-05-13T22:54:11.895Z,55.53
2019-05-13T22:56:44.839Z,55.99
2019-05-13T22:59:17.520Z,56.43
2019-05-13T23:01:52.345Z,56.85
2019-05-13T23:04:24.721Z,57.29
2019-05-13T23:06:57.897Z,57.77
2019-05-13T23:09:32.194Z,58.12
2019-05-13T23:12:05.032Z,58.39
2019-05-13T23:14:37.885Z,58.26
2019-05-13T23:17:12.550Z,57.75
2019-05-13T23:19:46.516Z,57.75
2019-05-13T23:22:19.309Z,57.74
2019-05-13T23:24:52.286Z,56.85
2019-05-13T23:27:26.193Z,56.67
2019-05-13T23:30:01.244Z,56.69
2019-05-13T23:32:35.598Z,56.81
2019-05-13T23:35:11.201Z,57.13
2019-05-13T23:37:43.678Z,57.50
2019-05-13T23:40:16.459Z,58.50
2019-05-13T23:42:51.619Z,59.52
2019-05-13T23:45:23.451Z,60.30
2019-05-13T23:47:56.125Z,61.34
2019-05-13T23:50:31.953Z,61.98
2019-05-13T23:53:04.155Z,62.26
2019-05-13T23:55:36.833Z,62.27
2019-05-13T23:58:09.513Z,62.30
